sensor_id;sensor_type;location;lat;lon;timestamp;P1;durP1;ratioP1;P2;durP2;ratioP2
72728;SDS011;60843;52.062;4.508;2023-02-24T00:01:40;7.45;;;1.20;;
72728;SDS011;60843;52.062;4.508;2023-02-24T00:04:11;9.85;;;1.55;;
72728;SDS011;60843;52.062;4.508;2023-02-24T00:06:40;8.40;;;1.50;;
72728;SDS011;60843;52.062;4.508;2023-02-24T00:09:09;11.98;;;1.10;;
72728;SDS011;60843;52.062;4.508;2023-02-24T00:11:38;8.25;;;1.40;;
72728;SDS011;60843;52.062;4.508;2023-02-24T00:14:07;14.45;;;1.42;;
72728;SDS011;60843;52.062;4.508;2023-02-24T00:16:33;9.55;;;1.20;;
72728;SDS011;60843;52.062;4.508;2023-02-24T00:19:00;6.47;;;1.10;;
72728;SDS011;60843;52.062;4.508;2023-02-24T00:21:26;7.50;;;1.60;;
72728;SDS011;60843;52.062;4.508;2023-02-24T00:23:52;5.05;;;0.85;;
72728;SDS011;60843;52.062;4.508;2023-02-24T00:26:19;3.22;;;0.95;;
72728;SDS011;60843;52.062;4.508;2023-02-24T00:28:45;4.15;;;0.80;;
72728;SDS011;60843;52.062;4.508;2023-02-24T00:31:12;6.03;;;0.90;;
72728;SDS011;60843;52.062;4.508;2023-02-24T00:33:40;8.18;;;1.13;;
72728;SDS011;60843;52.062;4.508;2023-02-24T00:36:17;6.88;;;0.88;;
72728;SDS011;60843;52.062;4.508;2023-02-24T00:38:51;6.25;;;0.90;;
72728;SDS011;60843;52.062;4.508;2023-02-24T00:41:22;5.00;;;0.85;;
72728;SDS011;60843;52.062;4.508;2023-02-24T00:43:55;5.63;;;0.85;;
72728;SDS011;60843;52.062;4.508;2023-02-24T00:46:23;6.78;;;0.77;;
72728;SDS011;60843;52.062;4.508;2023-02-24T00:48:50;7.00;;;1.10;;
72728;SDS011;60843;52.062;4.508;2023-02-24T00:51:22;6.38;;;1.13;;
72728;SDS011;60843;52.062;4.508;2023-02-24T00:53:50;5.82;;;1.00;;
72728;SDS011;60843;52.062;4.508;2023-02-24T00:56:20;9.23;;;1.00;;
72728;SDS011;60843;52.062;4.508;2023-02-24T00:58:46;4.25;;;0.70;;
72728;SDS011;60843;52.062;4.508;2023-02-24T01:01:13;4.40;;;0.80;;
72728;SDS011;60843;52.062;4.508;2023-02-24T01:03:42;11.65;;;1.42;;
72728;SDS011;60843;52.062;4.508;2023-02-24T01:06:09;5.90;;;0.90;;
72728;SDS011;60843;52.062;4.508;2023-02-24T01:08:39;6.05;;;0.90;;
72728;SDS011;60843;52.062;4.508;2023-02-24T01:11:07;7.38;;;0.73;;
72728;SDS011;60843;52.062;4.508;2023-02-24T01:13:52;7.40;;;0.63;;
72728;SDS011;60843;52.062;4.508;2023-02-24T01:16:18;8.30;;;1.08;;
72728;SDS011;60843;52.062;4.508;2023-02-24T01:18:44;9.10;;;0.75;;
72728;SDS011;60843;52.062;4.508;2023-02-24T01:21:14;3.03;;;0.77;;
72728;SDS011;60843;52.062;4.508;2023-02-24T01:23:47;6.40;;;0.75;;
72728;SDS011;60843;52.062;4.508;2023-02-24T01:26:16;10.00;;;1.38;;
72728;SDS011;60843;52.062;4.508;2023-02-24T01:28:43;7.13;;;0.70;;
72728;SDS011;60843;52.062;4.508;2023-02-24T01:31:12;5.80;;;0.60;;
72728;SDS011;60843;52.062;4.508;2023-02-24T01:33:41;6.28;;;0.63;;
72728;SDS011;60843;52.062;4.508;2023-02-24T01:36:17;6.85;;;0.90;;
72728;SDS011;60843;52.062;4.508;2023-02-24T01:38:47;8.77;;;1.00;;
72728;SDS011;60843;52.062;4.508;2023-02-24T01:41:17;6.15;;;0.80;;
72728;SDS011;60843;52.062;4.508;2023-02-24T01:43:55;7.75;;;0.70;;
72728;SDS011;60843;52.062;4.508;2023-02-24T01:46:26;6.55;;;0.57;;
72728;SDS011;60843;52.062;4.508;2023-02-24T01:48:57;10.27;;;0.88;;
72728;SDS011;60843;52.062;4.508;2023-02-24T01:51:28;4.57;;;0.82;;
72728;SDS011;60843;52.062;4.508;2023-02-24T01:53:57;7.65;;;0.88;;
72728;SDS011;60843;52.062;4.508;2023-02-24T01:56:23;11.38;;;1.38;;
72728;SDS011;60843;52.062;4.508;2023-02-24T01:58:54;1.58;;;0.50;;
72728;SDS011;60843;52.062;4.508;2023-02-24T02:01:20;3.75;;;0.60;;
72728;SDS011;60843;52.062;4.508;2023-02-24T02:03:45;3.67;;;0.57;;
72728;SDS011;60843;52.062;4.508;2023-02-24T02:06:12;5.07;;;0.52;;
72728;SDS011;60843;52.062;4.508;2023-02-24T02:08:41;5.05;;;0.98;;
72728;SDS011;60843;52.062;4.508;2023-02-24T02:11:09;3.28;;;0.63;;
72728;SDS011;60843;52.062;4.508;2023-02-24T02:13:38;6.60;;;1.02;;
72728;SDS011;60843;52.062;4.508;2023-02-24T02:21:31;2.55;;;0.50;;
72728;SDS011;60843;52.062;4.508;2023-02-24T02:24:30;2.80;;;0.50;;
72728;SDS011;60843;52.062;4.508;2023-02-24T02:32:50;6.05;;;0.90;;
72728;SDS011;60843;52.062;4.508;2023-02-24T02:35:34;9.93;;;1.08;;
72728;SDS011;60843;52.062;4.508;2023-02-24T02:40:54;12.18;;;0.95;;
72728;SDS011;60843;52.062;4.508;2023-02-24T02:43:39;7.45;;;0.90;;
72728;SDS011;60843;52.062;4.508;2023-02-24T02:49:19;5.47;;;0.82;;
72728;SDS011;60843;52.062;4.508;2023-02-24T02:51:49;6.78;;;1.20;;
72728;SDS011;60843;52.062;4.508;2023-02-24T02:57:00;4.53;;;1.02;;
72728;SDS011;60843;52.062;4.508;2023-02-24T02:59:30;8.68;;;0.80;;
72728;SDS011;60843;52.062;4.508;2023-02-24T03:02:03;4.03;;;0.82;;
72728;SDS011;60843;52.062;4.508;2023-02-24T03:04:48;3.80;;;0.85;;
72728;SDS011;60843;52.062;4.508;2023-02-24T03:07:21;3.58;;;0.55;;
72728;SDS011;60843;52.062;4.508;2023-02-24T03:09:54;9.05;;;1.02;;
72728;SDS011;60843;52.062;4.508;2023-02-24T03:12:26;4.90;;;0.70;;
72728;SDS011;60843;52.062;4.508;2023-02-24T03:14:58;1.98;;;0.65;;
72728;SDS011;60843;52.062;4.508;2023-02-24T03:17:27;1.92;;;0.50;;
72728;SDS011;60843;52.062;4.508;2023-02-24T03:19:58;1.88;;;0.50;;
72728;SDS011;60843;52.062;4.508;2023-02-24T03:22:38;9.20;;;1.02;;
72728;SDS011;60843;52.062;4.508;2023-02-24T03:25:06;5.63;;;0.80;;
72728;SDS011;60843;52.062;4.508;2023-02-24T03:27:49;7.50;;;1.10;;
72728;SDS011;60843;52.062;4.508;2023-02-24T03:30:26;5.63;;;0.82;;
72728;SDS011;60843;52.062;4.508;2023-02-24T03:32:55;3.28;;;0.30;;
72728;SDS011;60843;52.062;4.508;2023-02-24T03:35:35;5.85;;;0.50;;
72728;SDS011;60843;52.062;4.508;2023-02-24T03:38:03;4.90;;;0.50;;
72728;SDS011;60843;52.062;4.508;2023-02-24T03:40:30;6.20;;;0.82;;
72728;SDS011;60843;52.062;4.508;2023-02-24T03:43:33;3.17;;;0.43;;
72728;SDS011;60843;52.062;4.508;2023-02-24T03:45:55;5.55;;;1.27;;
72728;SDS011;60843;52.062;4.508;2023-02-24T03:48:21;10.32;;;0.63;;
72728;SDS011;60843;52.062;4.508;2023-02-24T03:50:49;5.00;;;0.65;;
72728;SDS011;60843;52.062;4.508;2023-02-24T04:09:13;4.43;;;0.57;;
72728;SDS011;60843;52.062;4.508;2023-02-24T04:11:52;5.10;;;0.90;;
72728;SDS011;60843;52.062;4.508;2023-02-24T04:14:23;6.72;;;0.70;;
72728;SDS011;60843;52.062;4.508;2023-02-24T04:16:57;4.80;;;0.77;;
72728;SDS011;60843;52.062;4.508;2023-02-24T04:19:32;3.88;;;0.80;;
72728;SDS011;60843;52.062;4.508;2023-02-24T04:22:02;1.20;;;0.30;;
72728;SDS011;60843;52.062;4.508;2023-02-24T04:24:30;7.00;;;0.80;;
72728;SDS011;60843;52.062;4.508;2023-02-24T04:27:00;2.90;;;0.38;;
72728;SDS011;60843;52.062;4.508;2023-02-24T04:29:28;6.75;;;0.82;;
72728;SDS011;60843;52.062;4.508;2023-02-24T04:32:01;7.47;;;0.50;;
72728;SDS011;60843;52.062;4.508;2023-02-24T04:34:29;1.92;;;0.32;;
72728;SDS011;60843;52.062;4.508;2023-02-24T04:36:57;3.30;;;0.28;;
72728;SDS011;60843;52.062;4.508;2023-02-24T04:39:24;3.13;;;0.57;;
72728;SDS011;60843;52.062;4.508;2023-02-24T04:41:50;3.30;;;0.52;;
72728;SDS011;60843;52.062;4.508;2023-02-24T04:44:16;7.50;;;1.00;;
72728;SDS011;60843;52.062;4.508;2023-02-24T04:46:44;3.67;;;0.52;;
72728;SDS011;60843;52.062;4.508;2023-02-24T04:49:10;4.70;;;0.65;;
72728;SDS011;60843;52.062;4.508;2023-02-24T04:51:37;1.48;;;0.52;;
72728;SDS011;60843;52.062;4.508;2023-02-24T04:54:08;10.02;;;1.00;;
72728;SDS011;60843;52.062;4.508;2023-02-24T04:56:39;3.95;;;0.65;;
72728;SDS011;60843;52.062;4.508;2023-02-24T04:59:06;5.45;;;1.55;;
72728;SDS011;60843;52.062;4.508;2023-02-24T05:01:34;7.70;;;0.95;;
72728;SDS011;60843;52.062;4.508;2023-02-24T05:04:04;4.28;;;0.73;;
72728;SDS011;60843;52.062;4.508;2023-02-24T05:06:31;18.13;;;1.63;;
72728;SDS011;60843;52.062;4.508;2023-02-24T05:08:56;5.85;;;1.10;;
72728;SDS011;60843;52.062;4.508;2023-02-24T05:11:22;3.30;;;1.10;;
72728;SDS011;60843;52.062;4.508;2023-02-24T05:13:48;9.25;;;1.23;;
72728;SDS011;60843;52.062;4.508;2023-02-24T05:16:15;4.45;;;1.13;;
72728;SDS011;60843;52.062;4.508;2023-02-24T05:18:41;8.85;;;1.00;;
72728;SDS011;60843;52.062;4.508;2023-02-24T05:21:10;4.18;;;1.25;;
72728;SDS011;60843;52.062;4.508;2023-02-24T05:23:56;6.18;;;1.35;;
72728;SDS011;60843;52.062;4.508;2023-02-24T05:26:23;5.00;;;1.15;;
72728;SDS011;60843;52.062;4.508;2023-02-24T05:28:50;4.55;;;1.30;;
72728;SDS011;60843;52.062;4.508;2023-02-24T05:31:18;8.90;;;1.42;;
72728;SDS011;60843;52.062;4.508;2023-02-24T05:33:47;6.40;;;1.25;;
72728;SDS011;60843;52.062;4.508;2023-02-24T05:36:14;4.93;;;1.15;;
72728;SDS011;60843;52.062;4.508;2023-02-24T05:38:44;7.90;;;1.50;;
72728;SDS011;60843;52.062;4.508;2023-02-24T05:41:15;3.42;;;1.38;;
72728;SDS011;60843;52.062;4.508;2023-02-24T05:43:49;5.35;;;1.02;;
72728;SDS011;60843;52.062;4.508;2023-02-24T05:46:20;6.30;;;1.20;;
72728;SDS011;60843;52.062;4.508;2023-02-24T05:48:52;2.78;;;0.75;;
72728;SDS011;60843;52.062;4.508;2023-02-24T05:51:25;13.30;;;0.98;;
72728;SDS011;60843;52.062;4.508;2023-02-24T05:53:51;5.82;;;1.27;;
72728;SDS011;60843;52.062;4.508;2023-02-24T05:56:20;3.63;;;1.25;;
72728;SDS011;60843;52.062;4.508;2023-02-24T05:58:47;5.03;;;1.23;;
72728;SDS011;60843;52.062;4.508;2023-02-24T06:01:14;8.32;;;1.13;;
72728;SDS011;60843;52.062;4.508;2023-02-24T06:03:47;8.93;;;1.10;;
72728;SDS011;60843;52.062;4.508;2023-02-24T06:06:16;4.70;;;0.95;;
72728;SDS011;60843;52.062;4.508;2023-02-24T06:08:42;2.50;;;0.63;;
72728;SDS011;60843;52.062;4.508;2023-02-24T06:11:15;5.05;;;1.83;;
72728;SDS011;60843;52.062;4.508;2023-02-24T06:13:44;9.50;;;0.93;;
72728;SDS011;60843;52.062;4.508;2023-02-24T06:16:14;3.67;;;0.60;;
72728;SDS011;60843;52.062;4.508;2023-02-24T06:18:40;9.40;;;0.98;;
72728;SDS011;60843;52.062;4.508;2023-02-24T06:21:06;4.78;;;1.00;;
72728;SDS011;60843;52.062;4.508;2023-02-24T06:23:32;8.98;;;1.30;;
72728;SDS011;60843;52.062;4.508;2023-02-24T06:26:02;3.55;;;0.85;;
72728;SDS011;60843;52.062;4.508;2023-02-24T06:28:28;5.85;;;1.00;;
72728;SDS011;60843;52.062;4.508;2023-02-24T06:30:54;7.72;;;0.85;;
72728;SDS011;60843;52.062;4.508;2023-02-24T06:33:20;6.78;;;0.88;;
72728;SDS011;60843;52.062;4.508;2023-02-24T06:35:46;4.45;;;0.35;;
72728;SDS011;60843;52.062;4.508;2023-02-24T06:38:12;6.60;;;0.98;;
72728;SDS011;60843;52.062;4.508;2023-02-24T06:40:39;9.88;;;3.45;;
72728;SDS011;60843;52.062;4.508;2023-02-24T06:43:07;24.80;;;6.78;;
72728;SDS011;60843;52.062;4.508;2023-02-24T06:45:33;10.43;;;1.77;;
72728;SDS011;60843;52.062;4.508;2023-02-24T06:48:01;8.20;;;2.50;;
72728;SDS011;60843;52.062;4.508;2023-02-24T06:50:27;8.43;;;1.33;;
72728;SDS011;60843;52.062;4.508;2023-02-24T06:52:56;5.85;;;1.23;;
72728;SDS011;60843;52.062;4.508;2023-02-24T06:55:25;1.52;;;0.57;;
72728;SDS011;60843;52.062;4.508;2023-02-24T06:57:52;4.50;;;0.60;;
72728;SDS011;60843;52.062;4.508;2023-02-24T07:00:22;7.28;;;1.15;;
72728;SDS011;60843;52.062;4.508;2023-02-24T07:02:51;19.02;;;1.65;;
72728;SDS011;60843;52.062;4.508;2023-02-24T07:05:17;3.05;;;0.73;;
72728;SDS011;60843;52.062;4.508;2023-02-24T07:07:43;5.55;;;0.70;;
72728;SDS011;60843;52.062;4.508;2023-02-24T07:10:13;8.27;;;1.90;;
72728;SDS011;60843;52.062;4.508;2023-02-24T07:15:06;3.03;;;1.02;;
72728;SDS011;60843;52.062;4.508;2023-02-24T07:17:32;4.65;;;0.70;;
72728;SDS011;60843;52.062;4.508;2023-02-24T07:19:58;2.80;;;0.63;;
72728;SDS011;60843;52.062;4.508;2023-02-24T07:22:34;6.30;;;0.52;;
72728;SDS011;60843;52.062;4.508;2023-02-24T07:25:00;1.15;;;0.32;;
72728;SDS011;60843;52.062;4.508;2023-02-24T07:27:26;4.60;;;1.40;;
72728;SDS011;60843;52.062;4.508;2023-02-24T07:29:51;8.82;;;1.35;;
72728;SDS011;60843;52.062;4.508;2023-02-24T07:32:17;3.63;;;0.70;;
72728;SDS011;60843;52.062;4.508;2023-02-24T07:34:46;4.32;;;1.25;;
72728;SDS011;60843;52.062;4.508;2023-02-24T07:37:12;6.95;;;1.27;;
72728;SDS011;60843;52.062;4.508;2023-02-24T07:39:38;1.83;;;0.40;;
72728;SDS011;60843;52.062;4.508;2023-02-24T07:42:05;2.85;;;0.73;;
72728;SDS011;60843;52.062;4.508;2023-02-24T07:44:32;6.18;;;1.25;;
72728;SDS011;60843;52.062;4.508;2023-02-24T07:46:58;7.85;;;1.50;;
72728;SDS011;60843;52.062;4.508;2023-02-24T07:49:23;8.93;;;1.40;;
72728;SDS011;60843;52.062;4.508;2023-02-24T07:51:51;8.18;;;0.93;;
72728;SDS011;60843;52.062;4.508;2023-02-24T07:54:17;6.65;;;0.85;;
72728;SDS011;60843;52.062;4.508;2023-02-24T07:56:47;8.05;;;1.13;;
72728;SDS011;60843;52.062;4.508;2023-02-24T07:59:21;7.15;;;1.13;;
72728;SDS011;60843;52.062;4.508;2023-02-24T08:01:48;0.85;;;0.52;;
72728;SDS011;60843;52.062;4.508;2023-02-24T08:04:14;4.38;;;1.40;;
72728;SDS011;60843;52.062;4.508;2023-02-24T08:06:42;8.68;;;1.52;;
72728;SDS011;60843;52.062;4.508;2023-02-24T08:09:12;4.95;;;1.48;;
72728;SDS011;60843;52.062;4.508;2023-02-24T08:14:25;4.00;;;1.20;;
72728;SDS011;60843;52.062;4.508;2023-02-24T08:16:56;6.57;;;1.10;;
72728;SDS011;60843;52.062;4.508;2023-02-24T08:19:26;4.55;;;1.23;;
72728;SDS011;60843;52.062;4.508;2023-02-24T08:22:07;7.88;;;1.30;;
72728;SDS011;60843;52.062;4.508;2023-02-24T08:24:54;5.25;;;0.63;;
72728;SDS011;60843;52.062;4.508;2023-02-24T08:27:25;8.52;;;1.05;;
72728;SDS011;60843;52.062;4.508;2023-02-24T08:29:54;5.00;;;0.70;;
72728;SDS011;60843;52.062;4.508;2023-02-24T08:32:31;12.10;;;2.00;;
72728;SDS011;60843;52.062;4.508;2023-02-24T08:35:01;7.47;;;2.20;;
72728;SDS011;60843;52.062;4.508;2023-02-24T08:37:38;13.48;;;3.40;;
72728;SDS011;60843;52.062;4.508;2023-02-24T08:40:21;10.95;;;2.40;;
72728;SDS011;60843;52.062;4.508;2023-02-24T08:42:59;15.60;;;4.13;;
72728;SDS011;60843;52.062;4.508;2023-02-24T08:45:53;10.00;;;2.10;;
72728;SDS011;60843;52.062;4.508;2023-02-24T08:48:28;3.40;;;0.82;;
72728;SDS011;60843;52.062;4.508;2023-02-24T08:51:10;9.18;;;1.58;;
72728;SDS011;60843;52.062;4.508;2023-02-24T08:53:41;7.85;;;2.15;;
72728;SDS011;60843;52.062;4.508;2023-02-24T08:56:10;6.28;;;0.90;;
72728;SDS011;60843;52.062;4.508;2023-02-24T08:58:41;7.28;;;1.50;;
72728;SDS011;60843;52.062;4.508;2023-02-24T09:01:22;10.35;;;0.93;;
72728;SDS011;60843;52.062;4.508;2023-02-24T09:03:59;5.40;;;0.93;;
72728;SDS011;60843;52.062;4.508;2023-02-24T09:06:46;12.20;;;1.08;;
72728;SDS011;60843;52.062;4.508;2023-02-24T09:09:17;7.93;;;1.25;;
72728;SDS011;60843;52.062;4.508;2023-02-24T09:11:51;4.57;;;0.85;;
72728;SDS011;60843;52.062;4.508;2023-02-24T09:14:22;3.97;;;1.20;;
72728;SDS011;60843;52.062;4.508;2023-02-24T09:16:51;11.18;;;1.23;;
72728;SDS011;60843;52.062;4.508;2023-02-24T09:22:11;3.78;;;0.60;;
72728;SDS011;60843;52.062;4.508;2023-02-24T09:24:56;3.67;;;0.70;;
72728;SDS011;60843;52.062;4.508;2023-02-24T09:28:04;3.38;;;1.05;;
72728;SDS011;60843;52.062;4.508;2023-02-24T09:30:38;8.45;;;1.33;;
72728;SDS011;60843;52.062;4.508;2023-02-24T09:33:19;5.72;;;1.45;;
72728;SDS011;60843;52.062;4.508;2023-02-24T09:35:53;2.97;;;0.65;;
72728;SDS011;60843;52.062;4.508;2023-02-24T09:38:42;33.10;;;8.80;;
72728;SDS011;60843;52.062;4.508;2023-02-24T09:44:23;13.32;;;3.80;;
72728;SDS011;60843;52.062;4.508;2023-02-24T09:49:45;5.82;;;2.05;;
72728;SDS011;60843;52.062;4.508;2023-02-24T09:52:20;3.47;;;1.58;;
72728;SDS011;60843;52.062;4.508;2023-02-24T09:55:04;6.65;;;1.83;;
72728;SDS011;60843;52.062;4.508;2023-02-24T10:00:53;9.65;;;2.13;;
72728;SDS011;60843;52.062;4.508;2023-02-24T10:03:25;0.82;;;0.50;;
72728;SDS011;60843;52.062;4.508;2023-02-24T10:06:17;4.97;;;1.77;;
72728;SDS011;60843;52.062;4.508;2023-02-24T10:08:47;5.22;;;1.80;;
72728;SDS011;60843;52.062;4.508;2023-02-24T10:11:17;6.50;;;2.65;;
72728;SDS011;60843;52.062;4.508;2023-02-24T10:13:57;7.93;;;2.08;;
72728;SDS011;60843;52.062;4.508;2023-02-24T10:16:25;6.93;;;2.53;;
72728;SDS011;60843;52.062;4.508;2023-02-24T10:19:20;2.90;;;1.83;;
72728;SDS011;60843;52.062;4.508;2023-02-24T10:34:11;6.68;;;4.15;;
72728;SDS011;60843;52.062;4.508;2023-02-24T10:36:35;13.50;;;4.78;;
72728;SDS011;60843;52.062;4.508;2023-02-24T10:41:56;9.35;;;3.70;;
72728;SDS011;60843;52.062;4.508;2023-02-24T10:44:26;10.40;;;4.85;;
72728;SDS011;60843;52.062;4.508;2023-02-24T10:47:03;9.68;;;3.55;;
72728;SDS011;60843;52.062;4.508;2023-02-24T10:49:47;12.88;;;5.85;;
72728;SDS011;60843;52.062;4.508;2023-02-24T10:52:28;8.63;;;4.10;;
72728;SDS011;60843;52.062;4.508;2023-02-24T11:01:06;10.65;;;4.80;;
72728;SDS011;60843;52.062;4.508;2023-02-24T11:04:01;9.23;;;4.28;;
72728;SDS011;60843;52.062;4.508;2023-02-24T11:06:46;9.35;;;4.18;;
72728;SDS011;60843;52.062;4.508;2023-02-24T11:09:22;3.72;;;2.42;;
72728;SDS011;60843;52.062;4.508;2023-02-24T11:11:52;10.05;;;3.85;;
72728;SDS011;60843;52.062;4.508;2023-02-24T11:14:56;5.03;;;2.42;;
72728;SDS011;60843;52.062;4.508;2023-02-24T11:17:53;8.45;;;4.65;;
72728;SDS011;60843;52.062;4.508;2023-02-24T11:20:32;7.05;;;3.20;;
72728;SDS011;60843;52.062;4.508;2023-02-24T11:23:00;7.50;;;4.40;;
72728;SDS011;60843;52.062;4.508;2023-02-24T11:25:36;9.43;;;3.85;;
72728;SDS011;60843;52.062;4.508;2023-02-24T11:28:04;5.78;;;1.60;;
72728;SDS011;60843;52.062;4.508;2023-02-24T11:30:52;5.63;;;2.40;;
72728;SDS011;60843;52.062;4.508;2023-02-24T11:36:40;6.88;;;2.25;;
72728;SDS011;60843;52.062;4.508;2023-02-24T11:41:56;3.92;;;1.70;;
72728;SDS011;60843;52.062;4.508;2023-02-24T11:46:55;6.15;;;2.17;;
72728;SDS011;60843;52.062;4.508;2023-02-24T11:52:02;5.60;;;2.50;;
72728;SDS011;60843;52.062;4.508;2023-02-24T11:54:36;11.52;;;2.90;;
72728;SDS011;60843;52.062;4.508;2023-02-24T11:57:03;3.45;;;1.70;;
72728;SDS011;60843;52.062;4.508;2023-02-24T11:59:39;14.30;;;3.22;;
72728;SDS011;60843;52.062;4.508;2023-02-24T12:02:21;9.65;;;2.70;;
72728;SDS011;60843;52.062;4.508;2023-02-24T12:05:14;15.23;;;3.72;;
72728;SDS011;60843;52.062;4.508;2023-02-24T12:07:47;17.35;;;3.13;;
72728;SDS011;60843;52.062;4.508;2023-02-24T12:10:34;4.00;;;1.67;;
72728;SDS011;60843;52.062;4.508;2023-02-24T12:13:10;16.95;;;2.42;;
72728;SDS011;60843;52.062;4.508;2023-02-24T12:16:02;26.50;;;1.85;;
72728;SDS011;60843;52.062;4.508;2023-02-24T12:18:33;4.78;;;1.30;;
72728;SDS011;60843;52.062;4.508;2023-02-24T12:21:04;17.15;;;2.22;;
72728;SDS011;60843;52.062;4.508;2023-02-24T12:23:35;11.10;;;2.17;;
72728;SDS011;60843;52.062;4.508;2023-02-24T12:28:42;13.30;;;1.63;;
72728;SDS011;60843;52.062;4.508;2023-02-24T12:34:07;3.25;;;0.57;;
72728;SDS011;60843;52.062;4.508;2023-02-24T12:56:51;7.85;;;1.63;;
72728;SDS011;60843;52.062;4.508;2023-02-24T12:59:24;15.77;;;1.48;;
72728;SDS011;60843;52.062;4.508;2023-02-24T13:01:59;5.55;;;0.93;;
72728;SDS011;60843;52.062;4.508;2023-02-24T13:09:44;7.85;;;1.50;;
72728;SDS011;60843;52.062;4.508;2023-02-24T13:14:49;10.25;;;1.60;;
72728;SDS011;60843;52.062;4.508;2023-02-24T13:17:19;12.18;;;2.47;;
72728;SDS011;60843;52.062;4.508;2023-02-24T13:19:46;17.25;;;2.10;;
72728;SDS011;60843;52.062;4.508;2023-02-24T13:24:39;7.97;;;1.60;;
72728;SDS011;60843;52.062;4.508;2023-02-24T13:32:37;10.90;;;1.95;;
72728;SDS011;60843;52.062;4.508;2023-02-24T13:37:39;5.15;;;0.82;;
72728;SDS011;60843;52.062;4.508;2023-02-24T13:40:20;18.38;;;4.18;;
72728;SDS011;60843;52.062;4.508;2023-02-24T13:42:58;6.72;;;2.70;;
72728;SDS011;60843;52.062;4.508;2023-02-24T14:02:14;8.40;;;1.10;;
72728;SDS011;60843;52.062;4.508;2023-02-24T14:04:45;6.50;;;0.93;;
72728;SDS011;60843;52.062;4.508;2023-02-24T14:07:16;10.25;;;1.58;;
72728;SDS011;60843;52.062;4.508;2023-02-24T14:09:50;4.75;;;1.05;;
72728;SDS011;60843;52.062;4.508;2023-02-24T14:12:18;1.83;;;0.60;;
72728;SDS011;60843;52.062;4.508;2023-02-24T14:14:45;8.93;;;1.75;;
72728;SDS011;60843;52.062;4.508;2023-02-24T14:17:31;6.47;;;0.80;;
72728;SDS011;60843;52.062;4.508;2023-02-24T14:20:17;11.77;;;1.15;;
72728;SDS011;60843;52.062;4.508;2023-02-24T14:22:44;10.68;;;1.45;;
72728;SDS011;60843;52.062;4.508;2023-02-24T14:25:11;6.45;;;1.55;;
72728;SDS011;60843;52.062;4.508;2023-02-24T14:27:41;10.88;;;1.65;;
72728;SDS011;60843;52.062;4.508;2023-02-24T14:30:19;13.52;;;1.98;;
72728;SDS011;60843;52.062;4.508;2023-02-24T14:32:57;7.20;;;1.40;;
72728;SDS011;60843;52.062;4.508;2023-02-24T14:35:34;5.30;;;1.23;;
72728;SDS011;60843;52.062;4.508;2023-02-24T14:38:02;12.27;;;1.48;;
72728;SDS011;60843;52.062;4.508;2023-02-24T14:40:28;6.03;;;1.30;;
72728;SDS011;60843;52.062;4.508;2023-02-24T14:42:54;4.15;;;0.70;;
72728;SDS011;60843;52.062;4.508;2023-02-24T14:45:23;4.25;;;1.20;;
72728;SDS011;60843;52.062;4.508;2023-02-24T14:47:51;3.00;;;0.40;;
72728;SDS011;60843;52.062;4.508;2023-02-24T14:50:19;6.40;;;0.55;;
72728;SDS011;60843;52.062;4.508;2023-02-24T14:55:50;2.85;;;0.60;;
72728;SDS011;60843;52.062;4.508;2023-02-24T14:58:30;3.85;;;0.60;;
72728;SDS011;60843;52.062;4.508;2023-02-24T15:01:06;6.63;;;0.95;;
72728;SDS011;60843;52.062;4.508;2023-02-24T15:03:46;5.03;;;0.40;;
72728;SDS011;60843;52.062;4.508;2023-02-24T15:06:17;2.72;;;0.25;;
72728;SDS011;60843;52.062;4.508;2023-02-24T15:08:49;1.98;;;0.47;;
72728;SDS011;60843;52.062;4.508;2023-02-24T15:11:29;2.38;;;0.45;;
72728;SDS011;60843;52.062;4.508;2023-02-24T15:13:57;2.50;;;0.40;;
72728;SDS011;60843;52.062;4.508;2023-02-24T15:16:27;3.95;;;1.02;;
72728;SDS011;60843;52.062;4.508;2023-02-24T15:18:57;5.50;;;0.57;;
72728;SDS011;60843;52.062;4.508;2023-02-24T15:21:28;7.18;;;0.75;;
72728;SDS011;60843;52.062;4.508;2023-02-24T15:24:25;3.30;;;0.75;;
72728;SDS011;60843;52.062;4.508;2023-02-24T15:26:54;3.70;;;0.35;;
72728;SDS011;60843;52.062;4.508;2023-02-24T15:29:38;1.17;;;0.50;;
72728;SDS011;60843;52.062;4.508;2023-02-24T15:32:03;3.72;;;0.52;;
72728;SDS011;60843;52.062;4.508;2023-02-24T15:34:33;8.35;;;1.35;;
72728;SDS011;60843;52.062;4.508;2023-02-24T15:37:12;0.85;;;0.32;;
72728;SDS011;60843;52.062;4.508;2023-02-24T15:39:44;2.83;;;0.32;;
72728;SDS011;60843;52.062;4.508;2023-02-24T15:42:22;9.45;;;0.77;;
72728;SDS011;60843;52.062;4.508;2023-02-24T15:44:54;2.05;;;0.43;;
72728;SDS011;60843;52.062;4.508;2023-02-24T15:49:47;2.95;;;0.50;;
72728;SDS011;60843;52.062;4.508;2023-02-24T15:52:13;4.32;;;0.95;;
72728;SDS011;60843;52.062;4.508;2023-02-24T15:54:39;6.18;;;0.75;;
72728;SDS011;60843;52.062;4.508;2023-02-24T15:57:08;8.07;;;1.20;;
72728;SDS011;60843;52.062;4.508;2023-02-24T15:59:35;3.92;;;0.80;;
72728;SDS011;60843;52.062;4.508;2023-02-24T16:02:00;5.00;;;0.85;;
72728;SDS011;60843;52.062;4.508;2023-02-24T16:04:25;2.25;;;0.60;;
72728;SDS011;60843;52.062;4.508;2023-02-24T16:06:52;3.85;;;1.15;;
72728;SDS011;60843;52.062;4.508;2023-02-24T16:11:50;4.80;;;0.77;;
72728;SDS011;60843;52.062;4.508;2023-02-24T16:14:16;3.38;;;0.40;;
72728;SDS011;60843;52.062;4.508;2023-02-24T16:16:42;4.10;;;0.75;;
72728;SDS011;60843;52.062;4.508;2023-02-24T16:19:12;6.82;;;1.30;;
72728;SDS011;60843;52.062;4.508;2023-02-24T16:21:38;9.40;;;1.30;;
72728;SDS011;60843;52.062;4.508;2023-02-24T16:24:04;3.42;;;0.60;;
72728;SDS011;60843;52.062;4.508;2023-02-24T16:26:30;1.77;;;0.60;;
72728;SDS011;60843;52.062;4.508;2023-02-24T16:29:00;3.80;;;0.80;;
72728;SDS011;60843;52.062;4.508;2023-02-24T16:31:26;4.53;;;1.02;;
72728;SDS011;60843;52.062;4.508;2023-02-24T16:33:52;4.40;;;0.68;;
72728;SDS011;60843;52.062;4.508;2023-02-24T16:36:18;4.35;;;0.93;;
72728;SDS011;60843;52.062;4.508;2023-02-24T16:38:43;5.03;;;1.15;;
72728;SDS011;60843;52.062;4.508;2023-02-24T16:41:12;3.28;;;0.52;;
72728;SDS011;60843;52.062;4.508;2023-02-24T16:43:38;4.35;;;0.60;;
72728;SDS011;60843;52.062;4.508;2023-02-24T16:46:05;4.22;;;0.47;;
72728;SDS011;60843;52.062;4.508;2023-02-24T16:48:32;2.28;;;0.52;;
72728;SDS011;60843;52.062;4.508;2023-02-24T16:51:01;1.75;;;0.35;;
72728;SDS011;60843;52.062;4.508;2023-02-24T16:53:28;3.63;;;0.52;;
72728;SDS011;60843;52.062;4.508;2023-02-24T16:55:54;0.82;;;0.30;;
72728;SDS011;60843;52.062;4.508;2023-02-24T16:58:20;1.98;;;0.50;;
72728;SDS011;60843;52.062;4.508;2023-02-24T17:00:47;3.13;;;0.75;;
72728;SDS011;60843;52.062;4.508;2023-02-24T17:05:47;8.18;;;1.40;;
72728;SDS011;60843;52.062;4.508;2023-02-24T17:08:13;7.57;;;1.77;;
72728;SDS011;60843;52.062;4.508;2023-02-24T17:10:39;2.92;;;1.20;;
72728;SDS011;60843;52.062;4.508;2023-02-24T17:13:06;15.93;;;1.75;;
72728;SDS011;60843;52.062;4.508;2023-02-24T17:15:32;10.52;;;1.23;;
72728;SDS011;60843;52.062;4.508;2023-02-24T17:17:58;5.47;;;0.68;;
72728;SDS011;60843;52.062;4.508;2023-02-24T17:20:24;8.77;;;1.40;;
72728;SDS011;60843;52.062;4.508;2023-02-24T17:22:49;7.10;;;1.10;;
72728;SDS011;60843;52.062;4.508;2023-02-24T17:25:16;7.15;;;1.42;;
72728;SDS011;60843;52.062;4.508;2023-02-24T17:27:49;5.68;;;1.05;;
72728;SDS011;60843;52.062;4.508;2023-02-24T17:30:20;5.30;;;0.90;;
72728;SDS011;60843;52.062;4.508;2023-02-24T17:32:47;5.80;;;1.13;;
72728;SDS011;60843;52.062;4.508;2023-02-24T17:35:13;1.80;;;0.70;;
72728;SDS011;60843;52.062;4.508;2023-02-24T17:37:39;9.98;;;1.80;;
72728;SDS011;60843;52.062;4.508;2023-02-24T17:40:05;12.73;;;1.60;;
72728;SDS011;60843;52.062;4.508;2023-02-24T17:42:31;3.08;;;1.35;;
72728;SDS011;60843;52.062;4.508;2023-02-24T17:47:25;9.48;;;1.13;;
72728;SDS011;60843;52.062;4.508;2023-02-24T17:49:51;4.13;;;1.58;;